Time;durP1;ratioP1;P1;durP2;ratioP2;P2;SDS_P1;SDS_P2;PMS_P1;PMS_P2;Temp;Humidity;BMP_temperature;BMP_pressure;BME280_temperature;BME280_humidity;BME280_pressure;Samples;Min_cycle;Max_cycle;Signal;HPM_P1;HPM_P2
2023/12/17 00:00:06;;;;;;;32.83;11.43;;;;;;;3.60;97.86;100409.09;4074368;29;20210;-90
2023/12/17 00:02:10;;;;;;;40.10;10.88;;;;;;;3.63;97.92;100416.81;4078337;29;20210;-88
2023/12/17 00:04:13;;;;;;;25.45;8.43;;;;;;;3.65;97.90;100412.50;4074567;29;20213;-88
2023/12/17 00:06:17;;;;;;;22.17;9.20;;;;;;;3.63;97.49;100421.13;4076582;29;20213;-90
2023/12/17 00:08:21;;;;;;;27.48;10.02;;;;;;;3.64;97.95;100410.81;4075313;29;20208;-88
2023/12/17 00:10:26;;;;;;;27.77;10.80;;;;;;;3.66;97.05;100408.22;4078028;29;20206;-91
2023/12/17 00:12:30;;;;;;;56.47;13.15;;;;;;;3.63;97.03;100414.25;4077925;29;20225;-91
2023/12/17 00:14:32;;;;;;;20.67;10.75;;;;;;;3.64;97.61;100415.97;4074810;29;20284;-90
2023/12/17 00:16:36;;;;;;;36.97;11.40;;;;;;;3.63;97.28;100414.25;4076644;29;20201;-89
2023/12/17 00:18:39;;;;;;;26.25;11.63;;;;;;;3.65;97.57;100415.09;4076722;29;20289;-88
2023/12/17 00:20:41;;;;;;;27.35;12.07;;;;;;;3.69;97.53;100421.13;4073141;29;20229;-87
2023/12/17 00:22:45;;;;;;;29.00;10.55;;;;;;;3.72;97.43;100409.06;4062609;29;20203;-89
2023/12/17 00:24:48;;;;;;;48.22;12.23;;;;;;;3.74;97.27;100413.34;4073056;29;20210;-92
2023/12/17 00:26:54;;;;;;;42.63;11.13;;;;;;;3.71;96.73;100407.31;4093356;28;20680;-91
2023/12/17 00:28:59;;;;;;;45.53;10.32;;;;;;;3.70;97.21;100409.91;4092671;28;20237;-91
2023/12/17 00:31:01;;;;;;;30.40;10.85;;;;;;;3.72;97.10;100411.63;4094931;28;20653;-91
2023/12/17 00:33:04;;;;;;;25.17;11.00;;;;;;;3.73;97.66;100408.19;4078592;29;20249;-92
2023/12/17 00:35:08;;;;;;;19.92;9.73;;;;;;;3.73;96.85;100418.53;4072771;29;20211;-90
2023/12/17 00:37:11;;;;;;;31.05;9.93;;;;;;;3.75;97.50;100419.34;4075762;29;20638;-90
2023/12/17 00:39:15;;;;;;;33.15;10.13;;;;;;;3.78;97.41;100416.78;4087594;28;20293;-91
2023/12/17 00:41:18;;;;;;;30.13;10.95;;;;;;;3.78;96.85;100416.78;4077358;29;20210;-92
2023/12/17 00:43:21;;;;;;;36.45;10.77;;;;;;;3.78;96.71;100424.50;4078046;29;20206;-91
2023/12/17 00:45:25;;;;;;;17.65;10.18;;;;;;;3.76;97.32;100428.81;4076188;29;20257;-90
2023/12/17 00:47:29;;;;;;;19.15;10.35;;;;;;;3.78;96.97;100419.34;4087876;28;20249;-92
2023/12/17 00:49:32;;;;;;;11.32;9.18;;;;;;;3.73;95.36;100421.09;4065009;29;20207;-92
2023/12/17 00:51:35;;;;;;;13.82;9.98;;;;;;;3.68;95.39;100416.81;4080018;29;20289;-91
2023/12/17 00:53:38;;;;;;;15.43;10.68;;;;;;;3.65;94.81;100412.50;4081636;29;20222;-91
2023/12/17 00:55:42;;;;;;;31.52;10.15;;;;;;;3.63;95.45;100403.94;4063599;29;20207;-92
2023/12/17 00:57:45;;;;;;;26.55;10.18;;;;;;;3.63;95.28;100409.09;4080145;29;20202;-91
2023/12/17 00:59:47;;;;;;;41.03;10.05;;;;;;;3.64;95.93;100420.25;4084017;29;20209;-92
2023/12/17 01:01:52;;;;;;;35.95;10.13;;;;;;;3.61;96.07;100408.25;4083050;29;20206;-92
2023/12/17 01:03:56;;;;;;;21.35;9.55;;;;;;;3.61;97.00;100420.25;4083713;29;20237;-92
2023/12/17 01:05:59;;;;;;;53.17;10.80;;;;;;;3.59;95.83;100409.09;4062270;29;20211;-92
2023/12/17 01:08:02;;;;;;;32.28;8.13;;;;;;;3.56;96.58;100412.53;4066698;29;20666;-94
2023/12/17 01:10:07;;;;;;;33.28;8.65;;;;;;;3.56;96.32;100407.38;4064899;29;20314;-94
2023/12/17 01:12:10;;;;;;;34.28;9.30;;;;;;;3.55;97.71;100415.13;4085081;29;20201;-93
2023/12/17 01:14:12;;;;;;;26.08;10.27;;;;;;;3.51;96.51;100423.75;4080099;29;20234;-94
2023/12/17 01:16:15;;;;;;;27.38;8.60;;;;;;;3.49;96.19;100426.34;4081428;29;20297;-94
2023/12/17 01:18:20;;;;;;;35.25;9.43;;;;;;;3.44;96.51;100428.09;4077432;29;20233;-93
2023/12/17 01:20:24;;;;;;;26.63;9.40;;;;;;;3.42;96.98;100416.03;4094773;28;20206;-94
2023/12/17 01:22:27;;;;;;;25.38;8.70;;;;;;;3.42;96.58;100424.63;4080199;29;20296;-95
2023/12/17 01:24:31;;;;;;;32.72;9.25;;;;;;;3.42;97.19;100428.94;4081930;29;20202;-94
2023/12/17 01:26:35;;;;;;;32.67;9.65;;;;;;;3.36;96.54;100428.94;4093244;28;20201;-93
2023/12/17 01:28:39;;;;;;;12.43;8.32;;;;;;;3.34;97.09;100431.53;4080519;29;20296;-93
2023/12/17 01:30:42;;;;;;;22.73;8.85;;;;;;;3.30;97.16;100437.53;4081131;29;20213;-94
2023/12/17 01:32:45;;;;;;;23.10;9.15;;;;;;;3.29;96.99;100429.81;4067482;29;20226;-94
2023/12/17 01:34:50;;;;;;;21.88;9.85;;;;;;;3.26;97.40;100429.81;4083352;29;20226;-92
2023/12/17 01:36:52;;;;;;;20.88;8.65;;;;;;;3.24;97.04;100422.97;4078808;29;24968;-94
2023/12/17 01:38:55;;;;;;;27.20;8.25;;;;;;;3.23;96.69;100418.66;4078712;29;20760;-94
2023/12/17 01:40:58;;;;;;;28.17;8.40;;;;;;;3.24;96.79;100417.81;4078629;28;20662;-93
2023/12/17 01:43:03;;;;;;;31.75;9.00;;;;;;;3.24;97.32;100428.13;4079118;29;20218;-94
2023/12/17 01:45:07;;;;;;;27.85;8.52;;;;;;;3.21;97.21;100423.81;4094653;29;20198;-94
2023/12/17 01:47:09;;;;;;;34.90;8.55;;;;;;;3.21;96.70;100422.97;4071410;29;20216;-95
2023/12/17 01:49:13;;;;;;;41.83;9.60;;;;;;;3.21;96.40;100422.97;4078890;29;20261;-94
2023/12/17 01:51:17;;;;;;;22.00;7.88;;;;;;;3.15;96.19;100407.53;4093690;28;20735;-94
2023/12/17 01:53:20;;;;;;;34.72;8.35;;;;;;;3.13;97.36;100414.38;4079284;29;20250;-95
2023/12/17 01:55:24;;;;;;;34.03;7.70;;;;;;;3.16;96.75;100414.38;4078125;29;20210;-94
2023/12/17 01:57:27;;;;;;;23.02;8.13;;;;;;;3.15;96.39;100418.69;4081475;29;20206;-94
2023/12/17 01:59:31;;;;;;;12.07;8.00;;;;;;;3.17;96.67;100429.00;4065174;29;20234;-94
2023/12/17 02:01:35;;;;;;;23.00;8.05;;;;;;;3.11;95.30;100426.41;4062047;29;20659;-94
2023/12/17 02:03:42;;;;;;;20.33;8.32;;;;;;;3.06;96.14;100428.16;4089462;28;20210;-94
2023/12/17 02:05:46;;;;;;;25.08;7.15;;;;;;;3.03;95.84;100420.44;4094927;29;20213;-94
2023/12/17 02:07:52;;;;;;;34.50;8.80;;;;;;;3.00;96.04;100426.44;4075252;29;20198;-94
2023/12/17 02:09:56;;;;;;;34.10;7.20;;;;;;;2.95;95.68;100430.75;4076016;29;20218;-94
2023/12/17 02:12:00;;;;;;;28.10;7.50;;;;;;;2.90;95.39;100423.88;4078270;29;20289;-94
2023/12/17 02:14:04;;;;;;;15.35;6.85;;;;;;;2.84;95.33;100416.13;4080956;29;20241;-93
2023/12/17 02:16:07;;;;;;;12.73;7.60;;;;;;;2.82;95.74;100412.72;4071733;29;20210;-95
2023/12/17 02:18:11;;;;;;;18.27;5.80;;;;;;;2.82;95.95;100415.28;4094320;28;20210;-94
2023/12/17 02:20:16;;;;;;;12.70;7.70;;;;;;;2.85;95.44;100430.75;4077584;29;20574;-94
2023/12/17 02:22:19;;;;;;;16.35;7.00;;;;;;;2.86;95.63;100419.59;4065049;29;20258;-94
2023/12/17 02:24:24;;;;;;;37.42;8.52;;;;;;;2.91;96.54;100423.00;4063026;29;20290;-94
2023/12/17 02:26:28;;;;;;;25.98;8.90;;;;;;;2.96;97.08;100421.28;4079407;29;20242;-94
2023/12/17 02:28:32;;;;;;;45.28;10.68;;;;;;;3.01;97.05;100429.88;4079348;29;20679;-95
2023/12/17 02:30:36;;;;;;;18.92;7.85;;;;;;;3.04;96.74;100437.63;4064778;29;20203;-93
2023/12/17 02:32:39;;;;;;;20.15;7.82;;;;;;;3.04;96.47;100435.03;4063749;29;20231;-94
2023/12/17 02:34:43;;;;;;;18.25;8.20;;;;;;;3.05;97.42;100429.00;4081241;29;20222;-94
2023/12/17 02:36:48;;;;;;;17.88;8.60;;;;;;;3.08;96.91;100421.28;4065092;29;20203;-95
2023/12/17 02:38:52;;;;;;;18.55;8.35;;;;;;;3.07;97.53;100410.13;4080820;29;20732;-95
2023/12/17 02:41:00;;;;;;;19.80;7.78;;;;;;;3.08;96.18;100400.66;4078206;29;20212;-94
2023/12/17 02:43:04;;;;;;;15.60;7.95;;;;;;;3.09;97.19;100403.22;4077178;29;20205;-94
2023/12/17 02:45:09;;;;;;;18.17;8.15;;;;;;;3.13;97.39;100398.91;4077122;29;20198;-93
2023/12/17 02:47:13;;;;;;;17.17;8.43;;;;;;;3.18;96.72;100407.53;4079039;29;20202;-94
2023/12/17 02:49:18;;;;;;;11.35;7.10;;;;;;;3.22;96.52;100416.94;4063692;29;20211;-95
2023/12/17 02:51:24;;;;;;;15.40;7.50;;;;;;;3.23;96.63;100426.41;4079089;29;20195;-93
2023/12/17 02:53:28;;;;;;;8.40;6.88;;;;;;;3.21;96.81;100422.97;4078287;29;20202;-95
2023/12/17 02:55:32;;;;;;;11.77;7.03;;;;;;;3.21;96.42;100426.41;4092240;28;20225;-91
2023/12/17 02:57:37;;;;;;;9.50;6.65;;;;;;;3.23;96.48;100426.41;4093549;29;20249;-90
2023/12/17 02:59:42;;;;;;;10.02;6.72;;;;;;;3.24;96.63;100417.81;4078688;29;20296;-92
2023/12/17 03:01:46;;;;;;;20.55;7.68;;;;;;;3.24;96.35;100407.50;4080346;29;20218;-91
2023/12/17 03:03:50;;;;;;;28.45;8.75;;;;;;;3.21;96.78;100410.09;4073088;29;20448;-92
2023/12/17 03:05:54;;;;;;;17.08;7.60;;;;;;;3.22;96.70;100404.94;4078079;29;20258;-91
2023/12/17 03:07:58;;;;;;;18.05;7.55;;;;;;;3.23;95.91;100413.50;4062805;29;20205;-92
2023/12/17 03:10:02;;;;;;;13.95;8.02;;;;;;;3.23;95.93;100410.94;4079765;29;20604;-92
2023/12/17 03:12:06;;;;;;;20.90;7.45;;;;;;;3.19;96.14;100402.38;4082324;29;20215;-91
2023/12/17 03:14:12;;;;;;;19.55;8.30;;;;;;;3.17;95.87;100390.31;4060573;29;21115;-94
2023/12/17 03:16:16;;;;;;;15.02;7.70;;;;;;;3.11;95.68;100383.50;4077374;29;20199;-94
2023/12/17 03:18:20;;;;;;;23.25;8.10;;;;;;;3.08;95.66;100382.63;4083201;29;20205;-94
2023/12/17 03:20:24;;;;;;;15.40;9.13;;;;;;;3.05;95.83;100380.03;4080005;29;20644;-93
2023/12/17 03:22:27;;;;;;;19.67;8.98;;;;;;;3.02;96.11;100386.09;4079182;29;20199;-93
2023/12/17 03:24:31;;;;;;;21.80;7.97;;;;;;;3.01;96.08;100393.81;4074157;29;20249;-94
2023/12/17 03:26:35;;;;;;;21.02;9.10;;;;;;;3.05;95.47;100386.09;4076547;29;20210;-91
2023/12/17 03:28:38;;;;;;;16.42;8.45;;;;;;;2.98;94.86;100376.63;4075511;28;20733;-92
2023/12/17 03:30:44;;;;;;;21.95;11.18;;;;;;;2.93;95.31;100372.34;4074053;29;20244;-91
2023/12/17 03:32:48;;;;;;;16.92;7.97;;;;;;;2.87;94.57;100370.66;4077933;29;20237;-92
2023/12/17 03:34:52;;;;;;;19.10;9.00;;;;;;;2.82;95.14;100358.63;4091410;29;20628;-94
2023/12/17 03:36:56;;;;;;;11.85;7.80;;;;;;;2.79;95.02;100356.06;4092534;28;20229;-94
2023/12/17 03:38:59;;;;;;;16.55;8.18;;;;;;;2.74;94.70;100355.22;4079661;29;20202;-94
2023/12/17 03:41:03;;;;;;;21.27;8.82;;;;;;;2.73;94.94;100350.91;4080742;29;20221;-94
2023/12/17 03:43:07;;;;;;;27.38;8.57;;;;;;;2.74;95.20;100347.47;4075051;29;20699;-94
2023/12/17 03:45:11;;;;;;;19.85;8.07;;;;;;;2.75;95.12;100348.34;4074009;29;20210;-94
2023/12/17 03:47:17;;;;;;;26.65;8.75;;;;;;;2.80;95.12;100344.91;4078022;29;20202;-94
2023/12/17 03:49:20;;;;;;;14.70;7.82;;;;;;;2.84;95.28;100351.75;4079377;29;20297;-93
2023/12/17 03:51:24;;;;;;;25.60;9.25;;;;;;;2.84;94.83;100344.00;4090206;28;20209;-94
2023/12/17 03:53:28;;;;;;;13.05;7.75;;;;;;;2.80;95.16;100347.47;4080639;28;20626;-94
2023/12/17 03:55:31;;;;;;;17.98;8.30;;;;;;;2.80;95.04;100358.63;4072440;29;20266;-94
2023/12/17 03:57:35;;;;;;;16.85;8.40;;;;;;;2.81;95.02;100354.31;4077579;29;20209;-94
2023/12/17 03:59:38;;;;;;;13.50;8.63;;;;;;;2.79;95.58;100350.06;4079537;29;20263;-94
2023/12/17 04:01:47;;;;;;;50.83;11.30;;;;;;;2.82;95.89;100358.63;4077838;29;20210;-94
2023/12/17 04:03:52;;;;;;;17.63;9.50;;;;;;;2.82;95.93;100356.91;4079020;29;20209;-94
2023/12/17 04:05:56;;;;;;;25.55;9.35;;;;;;;2.82;95.35;100346.59;4083495;29;20206;-94
2023/12/17 04:08:00;;;;;;;23.27;9.02;;;;;;;2.84;95.38;100342.31;4078283;29;20206;-93
2023/12/17 04:10:03;;;;;;;18.30;8.52;;;;;;;2.83;95.26;100345.75;4089761;29;20194;-94
2023/12/17 04:12:06;;;;;;;28.17;8.88;;;;;;;2.86;95.78;100347.47;4090350;28;20232;-94
2023/12/17 04:14:09;;;;;;;30.05;9.10;;;;;;;2.90;95.44;100344.00;4079790;29;20217;-95
2023/12/17 04:16:12;;;;;;;22.85;8.50;;;;;;;2.84;95.74;100338.88;4059419;29;20227;-94
2023/12/17 04:18:16;;;;;;;24.58;8.93;;;;;;;2.85;95.15;100344.00;4079998;29;20202;-94
2023/12/17 04:20:20;;;;;;;16.27;9.18;;;;;;;2.84;95.32;100344.00;4063867;29;20584;-93
2023/12/17 04:22:24;;;;;;;13.82;8.30;;;;;;;2.89;95.62;100347.47;4059405;29;21208;-95
2023/12/17 04:24:27;;;;;;;14.20;7.85;;;;;;;2.90;94.77;100355.19;4078915;29;20210;-94
2023/12/17 04:26:30;;;;;;;16.88;8.30;;;;;;;2.89;95.26;100358.63;4078335;29;20211;-94
2023/12/17 04:28:32;;;;;;;20.83;8.55;;;;;;;2.89;94.86;100347.47;4075896;29;20313;-94
2023/12/17 04:30:35;;;;;;;21.35;10.57;;;;;;;2.86;95.20;100343.16;4075015;29;20300;-94
2023/12/17 04:32:39;;;;;;;19.70;9.15;;;;;;;2.87;94.78;100333.69;4095482;28;20373;-94
2023/12/17 04:34:41;;;;;;;20.77;9.30;;;;;;;2.86;94.97;100338.00;4093430;28;20340;-95
2023/12/17 04:36:46;;;;;;;15.75;9.43;;;;;;;2.84;94.34;100344.00;4083308;29;20301;-94
2023/12/17 04:38:48;;;;;;;17.70;9.07;;;;;;;2.85;94.58;100341.44;4058204;29;20254;-94
2023/12/17 04:40:52;;;;;;;23.30;8.10;;;;;;;2.81;94.77;100332.03;4093643;29;20233;-94
2023/12/17 04:42:55;;;;;;;17.48;8.00;;;;;;;2.79;94.02;100333.72;4073529;29;20636;-94
2023/12/17 04:44:58;;;;;;;16.75;8.98;;;;;;;2.77;93.96;100332.03;4065004;29;20207;-95
2023/12/17 04:47:02;;;;;;;21.33;9.23;;;;;;;2.74;93.98;100333.72;4075621;29;20202;-94
2023/12/17 04:49:05;;;;;;;17.98;8.77;;;;;;;2.70;94.42;100339.75;4092377;28;20301;-94
2023/12/17 04:51:08;;;;;;;23.75;9.50;;;;;;;2.65;94.25;100329.47;4066845;29;20716;-93
2023/12/17 04:53:13;;;;;;;24.35;10.27;;;;;;;2.63;94.44;100325.16;4092082;28;20227;-93
2023/12/17 04:55:15;;;;;;;31.70;10.45;;;;;;;2.64;94.43;100340.63;4078143;29;20251;-94
2023/12/17 04:57:18;;;;;;;27.35;11.27;;;;;;;2.65;95.33;100360.38;4076684;29;20207;-93
2023/12/17 04:59:22;;;;;;;28.00;9.00;;;;;;;2.66;94.67;100338.91;4078715;29;20275;-94
2023/12/17 05:01:25;;;;;;;36.90;11.15;;;;;;;2.65;95.10;100337.19;4061465;29;20203;-94
2023/12/17 05:03:28;;;;;;;19.45;9.32;;;;;;;2.63;95.23;100343.19;4066137;29;21402;-94
2023/12/17 05:05:32;;;;;;;15.93;9.50;;;;;;;2.64;95.45;100344.91;4076754;29;20270;-93
2023/12/17 05:07:35;;;;;;;20.85;9.27;;;;;;;2.65;94.94;100347.50;4079921;29;20198;-91
2023/12/17 05:09:40;;;;;;;16.83;9.40;;;;;;;2.64;95.11;100338.03;4075012;29;20259;-93
2023/12/17 05:11:43;;;;;;;18.13;8.88;;;;;;;2.57;94.07;100331.19;4077846;29;20218;-93
2023/12/17 05:13:46;;;;;;;21.13;9.50;;;;;;;2.57;94.16;100331.19;4074652;29;20207;-94
2023/12/17 05:15:50;;;;;;;13.70;9.52;;;;;;;2.56;94.79;100326.06;4080484;29;20646;-94
2023/12/17 05:17:52;;;;;;;14.50;8.68;;;;;;;2.58;94.49;100324.31;4080231;29;20199;-94
2023/12/17 05:19:55;;;;;;;13.88;8.75;;;;;;;2.61;94.26;100326.91;4065892;29;20253;-93
2023/12/17 05:21:59;;;;;;;13.95;8.65;;;;;;;2.62;94.31;100323.47;4080977;29;20218;-95
2023/12/17 05:24:02;;;;;;;12.63;8.38;;;;;;;2.61;93.08;100319.16;4074192;29;20202;-93
2023/12/17 05:26:08;;;;;;;10.43;7.70;;;;;;;2.55;93.10;100314.88;4077891;29;20213;-94
2023/12/17 05:28:11;;;;;;;10.13;7.65;;;;;;;2.52;92.54;100314.88;4079680;29;20305;-94
2023/12/17 05:30:14;;;;;;;18.38;8.20;;;;;;;2.45;91.98;100302.00;4080447;29;20234;-93
2023/12/17 05:32:17;;;;;;;15.57;8.30;;;;;;;2.42;92.69;100313.19;4076611;29;20218;-94
2023/12/17 05:34:20;;;;;;;14.40;8.38;;;;;;;2.40;92.55;100314.03;4076275;29;20258;-94
2023/12/17 05:36:24;;;;;;;11.55;7.45;;;;;;;2.36;92.35;100326.06;4061960;29;20232;-93
2023/12/17 05:38:28;;;;;;;11.27;7.47;;;;;;;2.30;92.42;100329.47;4076164;29;20293;-94
2023/12/17 05:40:31;;;;;;;14.00;8.13;;;;;;;2.28;92.48;100326.06;4075976;29;20210;-94
2023/12/17 05:42:36;;;;;;;11.15;7.25;;;;;;;2.30;92.40;100329.47;4076714;29;20198;-94
2023/12/17 05:44:39;;;;;;;11.07;7.53;;;;;;;2.29;92.84;100331.22;4089893;28;20212;-93
2023/12/17 05:46:44;;;;;;;12.20;7.75;;;;;;;2.35;92.96;100337.22;4093768;28;20675;-94
2023/12/17 05:48:47;;;;;;;14.07;8.38;;;;;;;2.39;92.99;100349.22;4074329;29;20213;-93
2023/12/17 05:50:50;;;;;;;11.18;8.15;;;;;;;2.41;93.49;100342.34;4075911;29;20206;-93
2023/12/17 05:52:53;;;;;;;12.13;8.00;;;;;;;2.46;93.10;100340.63;4064607;29;20245;-94
2023/12/17 05:54:56;;;;;;;11.82;8.52;;;;;;;2.51;93.59;100332.91;4080601;29;20216;-94
2023/12/17 05:56:59;;;;;;;14.40;9.02;;;;;;;2.53;93.59;100332.06;4065506;29;20227;-94
2023/12/17 05:59:06;;;;;;;14.93;8.80;;;;;;;2.57;93.58;100327.75;4056426;29;20640;-95
2023/12/17 06:01:10;;;;;;;11.48;8.15;;;;;;;2.59;94.20;100329.47;4085052;29;20669;-94
2023/12/17 06:03:14;;;;;;;12.45;8.20;;;;;;;2.63;94.23;100336.34;4079876;29;20229;-94
2023/12/17 06:05:18;;;;;;;11.18;7.80;;;;;;;2.66;94.13;100338.03;4079621;28;20677;-93
2023/12/17 06:07:21;;;;;;;11.52;8.15;;;;;;;2.66;93.77;100338.91;4075463;29;20273;-93
2023/12/17 06:09:24;;;;;;;11.63;8.00;;;;;;;2.62;92.89;100331.19;4075846;28;20246;-94
2023/12/17 06:11:27;;;;;;;10.90;7.50;;;;;;;2.56;92.08;100341.50;4065046;29;20241;-94
2023/12/17 06:13:30;;;;;;;10.80;7.40;;;;;;;2.53;92.03;100334.63;4063555;29;20900;-94
2023/12/17 06:15:35;;;;;;;12.25;7.97;;;;;;;2.52;92.23;100339.78;4074508;29;20244;-94
2023/12/17 06:17:38;;;;;;;13.98;8.15;;;;;;;2.46;91.97;100338.06;4074065;29;20226;-94
2023/12/17 06:19:42;;;;;;;11.80;7.40;;;;;;;2.45;92.12;100332.91;4093156;28;20220;-94
2023/12/17 06:21:45;;;;;;;11.98;7.40;;;;;;;2.45;92.42;100333.78;4077882;29;20669;-94
2023/12/17 06:23:50;;;;;;;13.50;8.73;;;;;;;2.48;92.59;100338.06;4064648;29;20274;-94
2023/12/17 06:25:53;;;;;;;11.10;7.50;;;;;;;2.51;92.57;100338.06;4072792;29;20203;-93
2023/12/17 06:27:57;;;;;;;14.55;8.93;;;;;;;2.54;92.96;100344.06;4077657;29;20203;-94
2023/12/17 06:30:00;;;;;;;13.23;8.07;;;;;;;2.59;93.24;100350.06;4073207;29;20215;-93
2023/12/17 06:32:07;;;;;;;11.80;8.45;;;;;;;2.63;93.28;100348.34;4079836;29;20748;-94
2023/12/17 06:34:10;;;;;;;12.80;8.52;;;;;;;2.67;93.26;100339.75;4072261;29;20233;-95
2023/12/17 06:36:14;;;;;;;13.93;9.93;;;;;;;2.67;92.85;100334.63;4080110;29;20210;-94
2023/12/17 06:38:17;;;;;;;15.27;10.68;;;;;;;2.68;93.12;100337.19;4064659;29;20237;-94
2023/12/17 06:40:20;;;;;;;14.10;9.00;;;;;;;2.67;92.92;100335.47;4077824;29;20217;-93
2023/12/17 06:42:23;;;;;;;11.73;7.30;;;;;;;2.68;92.63;100332.03;4066093;29;20207;-94
2023/12/17 06:44:27;;;;;;;13.85;7.85;;;;;;;2.65;92.28;100337.19;4081523;28;20202;-94
2023/12/17 06:46:30;;;;;;;11.05;8.30;;;;;;;2.62;91.89;100347.50;4073069;29;20297;-93
2023/12/17 06:48:35;;;;;;;10.25;7.55;;;;;;;2.58;92.43;100350.91;4094742;29;20212;-93
2023/12/17 06:50:38;;;;;;;10.98;8.13;;;;;;;2.61;92.76;100350.91;4080878;29;20202;-94
2023/12/17 06:52:42;;;;;;;12.80;8.70;;;;;;;2.63;92.28;100341.50;4094578;28;20217;-94
2023/12/17 06:54:45;;;;;;;11.98;8.32;;;;;;;2.64;92.55;100340.63;4064992;29;20265;-94
2023/12/17 06:56:48;;;;;;;12.95;8.30;;;;;;;2.66;91.97;100341.50;4094536;29;20229;-93
2023/12/17 06:58:53;;;;;;;13.25;7.80;;;;;;;2.67;92.33;100342.34;4063358;29;20248;-93
2023/12/17 07:00:56;;;;;;;14.55;9.15;;;;;;;2.69;92.60;100344.06;4095012;29;20620;-93
2023/12/17 07:03:00;;;;;;;15.70;7.75;;;;;;;2.70;92.44;100340.59;4073125;29;20214;-93
2023/12/17 07:05:05;;;;;;;13.05;7.80;;;;;;;2.69;92.55;100333.75;4060611;29;20206;-94
2023/12/17 07:07:08;;;;;;;10.43;7.70;;;;;;;2.68;91.65;100339.75;4093439;28;20209;-94
2023/12/17 07:09:11;;;;;;;10.60;8.30;;;;;;;2.67;91.93;100330.31;4081147;29;20627;-94
2023/12/17 07:11:15;;;;;;;13.63;8.52;;;;;;;2.66;91.86;100338.91;4079485;29;20202;-94
2023/12/17 07:13:18;;;;;;;12.07;8.18;;;;;;;2.68;91.98;100342.34;4076410;29;20207;-94
2023/12/17 07:15:21;;;;;;;12.95;8.88;;;;;;;2.70;92.51;100345.75;4078773;29;20211;-94
2023/12/17 07:17:24;;;;;;;14.25;9.20;;;;;;;2.72;93.19;100344.06;4065590;29;20741;-93
2023/12/17 07:19:28;;;;;;;15.00;8.85;;;;;;;2.70;92.26;100334.63;4065684;29;20211;-93
2023/12/17 07:21:34;;;;;;;11.20;8.15;;;;;;;2.64;91.47;100330.31;4062245;29;20211;-94
2023/12/17 07:23:37;;;;;;;13.25;8.10;;;;;;;2.60;90.99;100331.19;4079058;29;20208;-94
2023/12/17 07:25:40;;;;;;;10.57;7.22;;;;;;;2.59;91.08;100333.78;4079337;29;20213;-93
2023/12/17 07:27:43;;;;;;;13.02;7.68;;;;;;;2.63;91.25;100338.03;4062366;29;20746;-93
2023/12/17 07:29:46;;;;;;;11.55;7.90;;;;;;;2.65;91.83;100332.03;4080163;29;20210;-94
2023/12/17 07:31:50;;;;;;;14.93;8.48;;;;;;;2.67;91.72;100340.63;4062322;29;20237;-93
2023/12/17 07:33:52;;;;;;;11.55;7.78;;;;;;;2.67;91.12;100335.47;4063608;29;20207;-93
2023/12/17 07:35:55;;;;;;;10.20;7.90;;;;;;;2.63;91.40;100338.03;4076669;29;20875;-93
2023/12/17 07:38:00;;;;;;;14.48;7.93;;;;;;;2.65;91.89;100333.78;4090858;28;20303;-91
2023/12/17 07:40:03;;;;;;;12.77;8.30;;;;;;;2.66;91.50;100331.19;4092293;28;20264;-91
2023/12/17 07:42:06;;;;;;;13.75;8.43;;;;;;;2.67;91.38;100335.47;4078503;29;20397;-93
2023/12/17 07:44:10;;;;;;;13.55;9.00;;;;;;;2.68;92.45;100332.03;4076319;29;20265;-91
2023/12/17 07:46:13;;;;;;;13.38;8.00;;;;;;;2.71;91.98;100332.03;4074365;29;20214;-90
2023/12/17 07:48:16;;;;;;;13.13;7.97;;;;;;;2.78;92.19;100333.72;4090541;28;20624;-91
2023/12/17 07:50:20;;;;;;;13.85;8.63;;;;;;;2.87;91.86;100344.00;4090862;28;20226;-91
2023/12/17 07:52:23;;;;;;;13.13;8.93;;;;;;;2.96;93.02;100338.84;4077067;29;20202;-90
2023/12/17 07:54:29;;;;;;;15.45;10.60;;;;;;;3.11;92.18;100338.81;4076541;29;20232;-89
2023/12/17 07:56:32;;;;;;;12.10;8.18;;;;;;;3.25;91.49;100342.19;4090377;29;20213;-90
2023/12/17 07:58:36;;;;;;;16.15;10.38;;;;;;;3.35;91.75;100343.03;4090666;28;20225;-89
2023/12/17 08:00:38;;;;;;;16.50;10.23;;;;;;;3.44;92.55;100345.56;4075420;29;20643;-90
2023/12/17 08:02:41;;;;;;;12.98;9.07;;;;;;;3.55;91.82;100343.78;4076545;29;20234;-90
2023/12/17 08:04:45;;;;;;;14.35;11.20;;;;;;;3.64;91.99;100348.91;4071011;29;20614;-89
2023/12/17 08:06:47;;;;;;;15.45;11.50;;;;;;;3.75;91.25;100349.69;4075173;29;20246;-91
2023/12/17 08:08:51;;;;;;;16.55;14.38;;;;;;;3.83;92.06;100355.66;4079377;29;20252;-91
2023/12/17 08:10:54;;;;;;;18.10;12.40;;;;;;;3.91;91.76;100359.06;4097652;28;20205;-91
2023/12/17 08:12:57;;;;;;;17.15;12.25;;;;;;;3.97;90.84;100359.03;4081699;29;20199;-91
2023/12/17 08:15:01;;;;;;;15.25;10.70;;;;;;;3.96;89.85;100350.44;4077499;29;20661;-91
2023/12/17 08:17:05;;;;;;;15.88;11.55;;;;;;;4.00;89.82;100354.72;4081227;29;20704;-88
2023/12/17 08:19:09;;;;;;;14.30;10.30;;;;;;;4.05;90.64;100352.09;4082081;29;20209;-90
2023/12/17 08:21:12;;;;;;;17.67;10.88;;;;;;;4.06;90.19;100354.69;4079740;29;20268;-89
2023/12/17 08:23:16;;;;;;;15.98;10.68;;;;;;;4.10;90.54;100352.94;4078108;29;20237;-90
2023/12/17 08:25:20;;;;;;;15.93;10.88;;;;;;;4.12;89.96;100358.94;4083084;29;20205;-89
2023/12/17 08:27:25;;;;;;;21.38;12.15;;;;;;;4.15;90.01;100356.31;4083760;29;20640;-89
2023/12/17 08:29:28;;;;;;;17.08;11.80;;;;;;;4.17;90.41;100349.44;4081335;29;20257;-89
2023/12/17 08:31:31;;;;;;;21.20;12.35;;;;;;;4.19;90.45;100355.44;4096715;28;20244;-90
2023/12/17 08:33:35;;;;;;;17.67;11.50;;;;;;;4.25;90.47;100344.22;4082078;29;20214;-90
2023/12/17 08:35:38;;;;;;;33.95;22.15;;;;;;;4.31;90.84;100349.31;4084143;29;20563;-90
2023/12/17 08:37:41;;;;;;;21.40;14.68;;;;;;;4.37;90.81;100344.09;4080889;29;20240;-90
2023/12/17 08:39:45;;;;;;;19.52;12.32;;;;;;;4.41;90.50;100356.13;4080623;29;20205;-90
2023/12/17 08:41:49;;;;;;;18.00;11.98;;;;;;;4.44;89.84;100348.34;4080324;29;20261;-90
2023/12/17 08:43:53;;;;;;;17.80;13.35;;;;;;;4.51;89.86;100355.19;4081142;29;20214;-90
2023/12/17 08:45:57;;;;;;;19.05;13.18;;;;;;;4.53;90.64;100347.44;4084316;29;20261;-90
2023/12/17 08:48:00;;;;;;;20.38;11.15;;;;;;;4.60;90.76;100352.53;4082051;29;20292;-89
2023/12/17 08:50:05;;;;;;;14.52;11.13;;;;;;;4.65;91.05;100352.50;4062182;29;20302;-90
2023/12/17 08:52:08;;;;;;;16.33;12.40;;;;;;;4.71;92.57;100354.16;4081457;29;20703;-88
2023/12/17 08:54:12;;;;;;;14.48;10.80;;;;;;;4.81;92.63;100354.91;4065956;29;20733;-91
2023/12/17 08:56:16;;;;;;;16.38;12.27;;;;;;;4.83;91.16;100358.34;4068411;29;20267;-90
2023/12/17 08:58:21;;;;;;;20.85;13.40;;;;;;;4.85;91.91;100351.44;4067239;29;20625;-93
2023/12/17 09:00:26;;;;;;;17.48;12.45;;;;;;;4.91;90.48;100356.53;4081356;29;20202;-92
2023/12/17 09:02:28;;;;;;;21.35;11.50;;;;;;;4.93;91.40;100355.66;4084242;29;20293;-92
2023/12/17 09:04:32;;;;;;;25.23;19.52;;;;;;;5.00;91.27;100356.47;4082867;29;20871;-92
2023/12/17 09:06:41;;;;;;;18.23;12.13;;;;;;;5.08;91.73;100339.13;4094136;28;20197;-92
2023/12/17 09:08:45;;;;;;;16.70;11.75;;;;;;;5.13;91.45;100346.81;4097593;28;20213;-90
2023/12/17 09:10:48;;;;;;;16.45;12.32;;;;;;;5.14;90.90;100345.97;4082262;29;20669;-91
2023/12/17 09:12:51;;;;;;;16.80;12.25;;;;;;;5.19;91.33;100344.16;4081823;29;20213;-90
2023/12/17 09:14:55;;;;;;;19.90;13.73;;;;;;;5.23;91.57;100345.84;4092231;28;20217;-89
2023/12/17 09:16:59;;;;;;;17.20;12.32;;;;;;;5.29;91.70;100343.22;4060129;29;20267;-91
2023/12/17 09:19:03;;;;;;;17.08;12.43;;;;;;;5.32;91.38;100345.75;4093231;28;20775;-91
2023/12/17 09:21:07;;;;;;;19.60;12.38;;;;;;;5.37;92.33;100345.69;4078016;29;20199;-91
2023/12/17 09:23:10;;;;;;;18.00;13.10;;;;;;;5.43;92.50;100348.22;4073123;29;20255;-92
2023/12/17 09:25:14;;;;;;;20.33;12.80;;;;;;;5.44;92.29;100348.19;4057610;29;20290;-93
2023/12/17 09:27:17;;;;;;;21.30;12.68;;;;;;;5.51;92.03;100352.41;4091607;28;20213;-92
2023/12/17 09:29:20;;;;;;;16.52;12.10;;;;;;;5.61;92.62;100354.03;4054979;29;20693;-90
2023/12/17 09:31:23;;;;;;;16.85;12.15;;;;;;;5.67;93.03;100356.53;4092784;28;20272;-90